Time;durP1;ratioP1;P1;durP2;ratioP2;P2;SDS_P1;SDS_P2;PMS_P1;PMS_P2;Temp;Humidity;BMP_temperature;BMP_pressure;BME280_temperature;BME280_humidity;BME280_pressure;Samples;Min_cycle;Max_cycle;Signal;HPM_P1;HPM_P2
2021/03/30 00:02:03;;;;;;;6.33;3.70;;;20.40;51.60;;;;;;5073916;28;20429;-60
2021/03/30 00:04:30;;;;;;;5.07;2.80;;;20.40;51.60;;;;;;5065211;28;20586;-60
2021/03/30 00:06:57;;;;;;;5.23;3.03;;;20.30;51.50;;;;;;5065470;28;20469;-60
2021/03/30 00:09:24;;;;;;;4.43;2.77;;;20.30;51.50;;;;;;5073500;28;20499;-60
2021/03/30 00:11:51;;;;;;;5.73;3.53;;;20.20;51.60;;;;;;5094526;28;20514;-60
2021/03/30 00:14:19;;;;;;;4.30;3.33;;;20.30;51.50;;;;;;5094485;28;20437;-60
2021/03/30 00:16:46;;;;;;;6.43;3.60;;;20.20;51.40;;;;;;5094852;28;20520;-60
2021/03/30 00:19:13;;;;;;;5.27;3.20;;;20.20;51.40;;;;;;5086690;28;20429;-60
2021/03/30 00:21:40;;;;;;;3.77;3.07;;;20.20;52.00;;;;;;5074434;28;20434;-60
2021/03/30 00:24:08;;;;;;;3.77;3.00;;;20.20;51.40;;;;;;5074553;28;20449;-60
2021/03/30 00:26:35;;;;;;;5.17;3.10;;;20.10;51.40;;;;;;5074409;28;20483;-60
2021/03/30 00:29:03;;;;;;;4.47;3.10;;;20.10;51.40;;;;;;5059084;28;20458;-60
2021/03/30 00:31:30;;;;;;;4.60;3.30;;;20.10;51.40;;;;;;5054394;28;20520;-60
2021/03/30 00:33:57;;;;;;;4.00;2.90;;;20.10;51.40;;;;;;5054549;28;20481;-60
2021/03/30 00:36:24;;;;;;;4.43;3.60;;;20.10;51.40;;;;;;5060403;28;20432;-60
2021/03/30 00:38:51;;;;;;;4.30;2.90;;;20.00;51.40;;;;;;5094949;28;20509;-60
2021/03/30 00:41:18;;;;;;;4.80;3.33;;;20.00;51.30;;;;;;5094219;28;20486;-60
2021/03/30 00:43:45;;;;;;;5.63;3.47;;;20.00;51.50;;;;;;5094380;28;20502;-60
2021/03/30 00:46:13;;;;;;;4.80;3.10;;;20.00;51.40;;;;;;5093328;28;20527;-60
2021/03/30 00:48:40;;;;;;;5.30;2.83;;;19.90;51.40;;;;;;5094329;28;20460;-60
2021/03/30 00:51:07;;;;;;;4.77;2.90;;;19.90;51.40;;;;;;5093852;28;20469;-60
2021/03/30 00:53:34;;;;;;;6.60;3.70;;;19.90;51.40;;;;;;5094338;28;20472;-60
2021/03/30 00:56:01;;;;;;;2.87;2.60;;;19.90;51.40;;;;;;5093309;28;20453;-60
2021/03/30 00:58:28;;;;;;;6.10;3.17;;;19.80;51.40;;;;;;5094452;28;20539;-60
2021/03/30 01:00:55;;;;;;;6.20;3.40;;;19.90;51.50;;;;;;5093861;28;20441;-60
2021/03/30 01:03:22;;;;;;;5.37;3.30;;;19.80;51.40;;;;;;5093625;28;20471;-60
2021/03/30 01:05:49;;;;;;;3.40;3.07;;;19.80;51.40;;;;;;5093720;28;20545;-60
2021/03/30 01:08:25;;;;;;;4.93;3.37;;;19.80;51.50;;;;;;5094317;28;20491;-60
2021/03/30 01:10:54;;;;;;;7.03;3.20;;;19.70;51.40;;;;;;5094231;28;20447;-60
2021/03/30 01:13:41;;;;;;;5.77;3.50;;;19.70;51.40;;;;;;5062545;28;20474;-60
2021/03/30 01:16:10;;;;;;;4.53;2.90;;;19.70;51.50;;;;;;5052863;28;20431;-60
2021/03/30 01:18:41;;;;;;;3.40;3.10;;;19.70;51.60;;;;;;5053651;28;20444;-60
2021/03/30 01:21:35;;;;;;;6.90;3.30;;;19.70;51.60;;;;;;5053299;28;20477;-60
2021/03/30 01:24:07;;;;;;;3.47;3.17;;;19.60;51.70;;;;;;5044593;28;20525;-60
2021/03/30 01:26:44;;;;;;;4.70;3.00;;;19.50;51.60;;;;;;5053493;28;20438;-60
2021/03/30 01:29:48;;;;;;;5.80;3.43;;;19.50;51.60;;;;;;5061375;28;20469;-60
2021/03/30 01:32:20;;;;;;;4.23;2.97;;;19.50;51.70;;;;;;5067324;28;20469;-60
2021/03/30 01:34:47;;;;;;;7.10;3.50;;;19.50;51.70;;;;;;5055651;28;20537;-60
2021/03/30 01:37:15;;;;;;;3.90;3.00;;;19.50;51.70;;;;;;5053575;28;20465;-60
2021/03/30 01:39:43;;;;;;;6.23;3.27;;;19.50;51.80;;;;;;5082332;28;20422;-60
2021/03/30 01:42:10;;;;;;;4.60;3.00;;;19.40;51.80;;;;;;5093358;28;20439;-60
2021/03/30 01:44:38;;;;;;;4.50;3.20;;;19.40;51.80;;;;;;5088027;28;20484;-60
2021/03/30 01:47:07;;;;;;;6.83;3.33;;;19.40;51.80;;;;;;5093185;28;20506;-60
2021/03/30 01:49:34;;;;;;;4.63;3.10;;;19.30;51.80;;;;;;5093411;28;20448;-60
2021/03/30 01:52:02;;;;;;;3.80;2.90;;;19.30;51.80;;;;;;5093412;28;20472;-60
2021/03/30 01:54:29;;;;;;;7.13;3.30;;;19.30;51.90;;;;;;5092719;28;20471;-60
2021/03/30 01:56:56;;;;;;;5.20;3.27;;;19.30;52.00;;;;;;5093167;28;20514;-60
2021/03/30 01:59:23;;;;;;;5.40;3.07;;;19.20;52.60;;;;;;5093321;28;20527;-60
2021/03/30 02:01:50;;;;;;;5.27;3.50;;;19.20;51.90;;;;;;5093702;28;20452;-60
2021/03/30 02:04:19;;;;;;;4.80;2.87;;;19.20;52.00;;;;;;5093220;28;20441;-60
2021/03/30 02:06:47;;;;;;;6.60;3.00;;;19.20;52.00;;;;;;5093281;28;20440;-60
2021/03/30 02:09:18;;;;;;;3.40;2.90;;;19.20;52.00;;;;;;5093405;28;20473;-60
2021/03/30 02:11:48;;;;;;;3.57;2.90;;;19.10;52.00;;;;;;5093472;28;20472;-60
2021/03/30 02:14:15;;;;;;;4.80;2.93;;;19.10;52.00;;;;;;5092664;28;20417;-60
2021/03/30 02:16:47;;;;;;;4.93;3.00;;;19.10;52.00;;;;;;5093440;28;20471;-59
2021/03/30 02:19:16;;;;;;;5.87;3.30;;;19.10;52.00;;;;;;5093570;28;20488;-60
2021/03/30 02:21:45;;;;;;;4.53;3.23;;;19.10;52.00;;;;;;5093525;28;20495;-60
2021/03/30 02:24:12;;;;;;;4.67;3.17;;;19.00;51.90;;;;;;5060188;28;20541;-60
2021/03/30 02:26:40;;;;;;;5.13;3.43;;;19.00;52.00;;;;;;5053306;28;20465;-60
2021/03/30 02:29:09;;;;;;;4.30;2.90;;;19.00;52.00;;;;;;5053164;28;20496;-60
2021/03/30 02:31:35;;;;;;;5.60;3.13;;;19.00;51.90;;;;;;5054482;28;20545;-60
2021/03/30 02:34:04;;;;;;;6.50;3.70;;;19.00;51.90;;;;;;5056509;28;20426;-60
2021/03/30 02:36:31;;;;;;;4.40;2.97;;;19.00;52.00;;;;;;5056337;28;20466;-60
2021/03/30 02:39:02;;;;;;;5.13;3.00;;;18.90;52.00;;;;;;5056936;28;20474;-60
2021/03/30 02:41:29;;;;;;;6.10;3.40;;;18.90;52.10;;;;;;5082217;28;20461;-60
2021/03/30 02:43:56;;;;;;;3.40;3.10;;;18.90;52.10;;;;;;5096439;28;20411;-60
2021/03/30 02:46:23;;;;;;;5.77;2.97;;;18.90;52.10;;;;;;5096013;28;20535;-60
2021/03/30 02:48:50;;;;;;;4.07;2.70;;;18.80;52.00;;;;;;5096199;28;20452;-60
2021/03/30 02:51:17;;;;;;;3.87;3.00;;;18.80;52.10;;;;;;5056447;28;20533;-60
2021/03/30 02:53:44;;;;;;;3.90;2.90;;;18.80;52.20;;;;;;5051419;28;20485;-60
2021/03/30 02:56:11;;;;;;;4.80;2.90;;;18.80;52.20;;;;;;5055162;28;20527;-60
2021/03/30 02:58:38;;;;;;;5.50;2.97;;;18.80;52.20;;;;;;5072861;28;20556;-60
2021/03/30 03:01:05;;;;;;;4.23;2.83;;;18.80;52.10;;;;;;5096675;28;20465;-60
2021/03/30 03:03:32;;;;;;;4.37;3.27;;;18.70;52.10;;;;;;5096835;28;20469;-60
2021/03/30 03:05:59;;;;;;;4.07;2.70;;;18.70;52.20;;;;;;5095625;28;20433;-60
2021/03/30 03:08:26;;;;;;;5.07;3.33;;;18.70;52.20;;;;;;5096146;28;20440;-60
2021/03/30 03:10:53;;;;;;;3.20;2.70;;;18.70;52.20;;;;;;5096077;28;20567;-60
2021/03/30 03:13:21;;;;;;;4.77;2.90;;;18.70;52.20;;;;;;5096216;28;20447;-60
2021/03/30 03:15:48;;;;;;;5.20;3.00;;;18.70;52.20;;;;;;5094924;28;20473;-60
2021/03/30 03:18:15;;;;;;;6.43;3.57;;;18.60;52.30;;;;;;5094873;28;20475;-60
2021/03/30 03:20:45;;;;;;;5.30;2.80;;;18.60;52.30;;;;;;5094782;28;20536;-60
2021/03/30 03:23:12;;;;;;;3.57;3.00;;;18.60;52.40;;;;;;5080273;28;20477;-60
2021/03/30 03:25:38;;;;;;;3.30;2.80;;;18.60;52.30;;;;;;5071059;28;20458;-60
2021/03/30 03:28:05;;;;;;;3.83;3.07;;;18.60;52.30;;;;;;5075560;28;20429;-60
2021/03/30 03:30:33;;;;;;;5.63;3.30;;;18.50;52.30;;;;;;5060895;28;20431;-60
2021/03/30 03:33:06;;;;;;;3.73;3.00;;;18.50;52.40;;;;;;5054716;28;20506;-60
2021/03/30 03:35:33;;;;;;;4.73;2.80;;;18.50;52.30;;;;;;5054701;28;20518;-60
2021/03/30 03:38:01;;;;;;;4.73;3.10;;;18.50;52.30;;;;;;5055585;28;20481;-60
2021/03/30 03:40:28;;;;;;;5.33;3.13;;;18.50;52.40;;;;;;5055544;28;20443;-60
2021/03/30 03:42:55;;;;;;;5.80;3.03;;;18.50;52.30;;;;;;5054545;28;20478;-60
2021/03/30 03:45:22;;;;;;;4.13;3.30;;;18.50;52.40;;;;;;5054914;28;20546;-60
2021/03/30 03:47:50;;;;;;;4.30;3.10;;;18.50;52.50;;;;;;5055470;28;20446;-60
2021/03/30 03:50:17;;;;;;;5.67;3.33;;;18.40;52.40;;;;;;5055853;28;20439;-60
2021/03/30 03:52:44;;;;;;;4.60;3.20;;;18.40;52.40;;;;;;5055119;28;20518;-60
2021/03/30 03:55:12;;;;;;;5.37;3.27;;;18.40;52.40;;;;;;5049527;28;20501;-60
2021/03/30 03:57:42;;;;;;;4.10;3.03;;;18.40;52.40;;;;;;5055365;28;20416;-60
2021/03/30 04:00:10;;;;;;;7.20;3.13;;;18.40;52.40;;;;;;5063924;28;20461;-60
2021/03/30 04:02:40;;;;;;;2.97;2.67;;;18.30;52.40;;;;;;5094839;28;20543;-60
2021/03/30 04:05:11;;;;;;;5.13;3.00;;;18.30;52.40;;;;;;5094781;28;20433;-60
2021/03/30 04:07:41;;;;;;;3.00;2.80;;;18.30;52.40;;;;;;5095079;28;20477;-60
2021/03/30 04:10:09;;;;;;;4.47;3.13;;;18.30;52.40;;;;;;5095035;28;20523;-60
2021/03/30 04:12:36;;;;;;;5.00;3.27;;;18.20;52.40;;;;;;5094725;28;20468;-60
2021/03/30 04:15:03;;;;;;;4.10;3.10;;;18.20;52.50;;;;;;5095151;28;20532;-60
2021/03/30 04:17:30;;;;;;;3.03;2.70;;;18.20;52.60;;;;;;5094380;28;20488;-60
2021/03/30 04:19:57;;;;;;;4.73;3.00;;;18.20;52.60;;;;;;5095398;28;20469;-59
2021/03/30 04:22:25;;;;;;;4.63;3.00;;;18.20;52.50;;;;;;5095190;28;20455;-59
2021/03/30 04:24:52;;;;;;;3.07;2.77;;;18.20;52.50;;;;;;5094396;28;20492;-59
2021/03/30 04:27:18;;;;;;;4.57;3.23;;;18.10;52.40;;;;;;5084407;28;20446;-60
2021/03/30 04:29:45;;;;;;;6.23;3.13;;;18.10;52.50;;;;;;5074844;28;20590;-60
2021/03/30 04:32:12;;;;;;;5.20;3.17;;;18.10;52.50;;;;;;5074016;28;20482;-60
2021/03/30 04:34:39;;;;;;;2.80;2.60;;;18.10;52.60;;;;;;5073909;28;20529;-60
2021/03/30 04:37:06;;;;;;;3.93;2.73;;;18.10;52.50;;;;;;5091540;28;20445;-60
2021/03/30 04:39:34;;;;;;;3.10;2.80;;;18.10;52.60;;;;;;5094334;28;20464;-60
2021/03/30 04:42:01;;;;;;;3.30;2.93;;;18.00;52.60;;;;;;5094347;28;20486;-60
2021/03/30 04:44:28;;;;;;;4.40;3.17;;;18.00;52.60;;;;;;5093792;28;20544;-60
2021/03/30 04:46:54;;;;;;;3.83;2.97;;;18.00;52.70;;;;;;5094808;28;20463;-60
2021/03/30 04:49:21;;;;;;;4.00;3.50;;;18.00;52.60;;;;;;5094277;28;20535;-60
2021/03/30 04:51:48;;;;;;;4.03;2.77;;;17.90;52.50;;;;;;5094088;28;20441;-60
2021/03/30 04:54:15;;;;;;;3.57;3.23;;;17.90;52.50;;;;;;5068194;28;20528;-61
2021/03/30 04:56:43;;;;;;;5.53;3.13;;;17.90;52.60;;;;;;5053934;28;20525;-60
2021/03/30 04:59:10;;;;;;;5.20;3.07;;;17.90;52.60;;;;;;5054452;28;20434;-60
2021/03/30 05:01:37;;;;;;;3.00;2.70;;;17.90;52.70;;;;;;5053809;28;20474;-60
2021/03/30 05:04:04;;;;;;;3.77;2.70;;;17.80;52.60;;;;;;5056272;28;20430;-59
2021/03/30 05:06:32;;;;;;;3.83;2.60;;;17.90;52.60;;;;;;5072828;28;20541;-60
2021/03/30 05:09:00;;;;;;;3.00;2.80;;;17.90;52.60;;;;;;5073367;28;20516;-60
2021/03/30 05:11:27;;;;;;;4.93;3.20;;;17.90;52.60;;;;;;5071096;28;20490;-60
2021/03/30 05:13:55;;;;;;;3.57;2.80;;;17.80;52.50;;;;;;5073980;28;20569;-60
2021/03/30 05:16:22;;;;;;;3.53;2.80;;;17.80;52.60;;;;;;5073169;28;20536;-60
2021/03/30 05:18:49;;;;;;;2.73;2.50;;;17.80;52.50;;;;;;5074068;28;20461;-60
2021/03/30 05:21:17;;;;;;;3.83;3.13;;;17.80;52.40;;;;;;5090092;28;20476;-60
2021/03/30 05:23:44;;;;;;;3.07;2.80;;;17.80;52.60;;;;;;5093759;28;20448;-60
2021/03/30 05:26:11;;;;;;;3.60;3.07;;;17.80;52.60;;;;;;5093179;28;20460;-59
2021/03/30 05:28:38;;;;;;;4.30;2.53;;;17.80;52.60;;;;;;5085861;28;20439;-60
2021/03/30 05:31:06;;;;;;;4.23;3.33;;;17.80;52.50;;;;;;5053348;28;20474;-60
2021/03/30 05:33:33;;;;;;;3.40;2.70;;;17.80;52.60;;;;;;5053364;28;20470;-60
2021/03/30 05:36:00;;;;;;;3.00;2.70;;;17.80;52.50;;;;;;5052705;28;20529;-60
2021/03/30 05:38:27;;;;;;;5.13;2.80;;;17.80;52.50;;;;;;5077795;28;20492;-60
2021/03/30 05:40:54;;;;;;;4.87;3.13;;;17.80;52.40;;;;;;5093846;28;20471;-60
2021/03/30 05:43:21;;;;;;;3.47;2.70;;;17.90;52.50;;;;;;5093695;28;20437;-60
2021/03/30 05:45:48;;;;;;;4.07;3.00;;;17.80;52.40;;;;;;5093016;28;20540;-59
2021/03/30 05:48:17;;;;;;;3.20;2.43;;;17.80;52.40;;;;;;5053351;28;20470;-60
2021/03/30 05:50:44;;;;;;;4.53;3.00;;;17.80;52.30;;;;;;5053193;28;20477;-60
2021/03/30 05:53:14;;;;;;;3.40;3.10;;;17.80;52.40;;;;;;5053318;28;20480;-60
2021/03/30 05:55:43;;;;;;;3.03;2.37;;;17.80;52.40;;;;;;5061861;28;20515;-60
2021/03/30 05:58:10;;;;;;;3.33;3.00;;;17.80;52.30;;;;;;5073731;28;20521;-60
2021/03/30 06:00:38;;;;;;;3.17;2.87;;;17.80;52.40;;;;;;5073685;28;20506;-60
2021/03/30 06:03:05;;;;;;;3.57;3.27;;;17.80;52.40;;;;;;5073129;28;20465;-60
2021/03/30 06:05:34;;;;;;;3.60;2.80;;;17.80;52.40;;;;;;5056263;28;20439;-60
2021/03/30 06:08:01;;;;;;;3.30;2.60;;;17.80;52.30;;;;;;5056799;28;20454;-59
2021/03/30 06:10:30;;;;;;;3.30;2.93;;;17.90;52.20;;;;;;5056914;28;20533;-59
2021/03/30 06:12:58;;;;;;;3.70;3.07;;;18.00;52.00;;;;;;5057548;28;20527;-60
2021/03/30 06:15:26;;;;;;;3.00;2.70;;;18.00;52.00;;;;;;5056912;28;20504;-60
2021/03/30 06:17:54;;;;;;;3.47;3.20;;;18.00;52.00;;;;;;5056980;28;20529;-60
2021/03/30 06:20:29;;;;;;;4.30;3.10;;;18.00;52.00;;;;;;5057126;28;20518;-60
2021/03/30 06:22:59;;;;;;;3.10;2.67;;;18.00;51.90;;;;;;5057493;28;20445;-60
2021/03/30 06:25:36;;;;;;;4.00;3.00;;;18.10;51.70;;;;;;5056314;28;20461;-60
2021/03/30 06:28:25;;;;;;;3.10;2.80;;;18.10;51.70;;;;;;5057088;28;20438;-60
2021/03/30 06:31:01;;;;;;;4.30;2.73;;;18.10;51.80;;;;;;5068564;28;20441;-60
2021/03/30 06:33:29;;;;;;;3.27;2.87;;;18.10;51.80;;;;;;5096948;28;20515;-60
2021/03/30 06:36:12;;;;;;;4.30;3.03;;;18.10;51.70;;;;;;5096436;28;20472;-60
2021/03/30 06:38:50;;;;;;;3.90;2.93;;;18.20;51.70;;;;;;5096540;28;20512;-60
2021/03/30 06:41:33;;;;;;;3.63;3.10;;;18.20;51.50;;;;;;5096488;28;20479;-60
2021/03/30 06:44:26;;;;;;;5.60;3.53;;;18.30;51.40;;;;;;5096755;28;20437;-60
2021/03/30 06:46:56;;;;;;;3.03;2.83;;;18.30;51.40;;;;;;5096638;28;20486;-60
2021/03/30 06:49:23;;;;;;;3.67;3.10;;;18.40;51.30;;;;;;5096527;28;20535;-60
2021/03/30 06:51:50;;;;;;;2.87;2.67;;;18.50;51.20;;;;;;5096412;28;20436;-60
2021/03/30 06:54:17;;;;;;;3.80;2.83;;;18.50;51.10;;;;;;5095896;28;20551;-60
2021/03/30 06:56:45;;;;;;;3.23;2.93;;;18.60;51.00;;;;;;5096225;28;20468;-60
2021/03/30 06:59:12;;;;;;;3.30;3.00;;;18.70;51.00;;;;;;5096196;28;20472;-60
2021/03/30 07:01:39;;;;;;;6.27;3.17;;;18.70;51.00;;;;;;5095998;28;20480;-60
2021/03/30 07:04:06;;;;;;;4.43;2.80;;;18.80;51.00;;;;;;5096602;28;20460;-60
2021/03/30 07:06:33;;;;;;;2.87;2.57;;;18.80;50.90;;;;;;5095719;28;20432;-60
2021/03/30 07:09:00;;;;;;;3.00;2.80;;;18.90;50.80;;;;;;5096920;28;20500;-60
2021/03/30 07:11:28;;;;;;;2.63;2.43;;;19.00;50.70;;;;;;5096147;28;20467;-60
2021/03/30 07:13:56;;;;;;;4.03;2.57;;;19.00;50.60;;;;;;5082863;28;20544;-60
2021/03/30 07:16:27;;;;;;;2.80;2.70;;;19.20;50.50;;;;;;5075375;28;20434;-60
2021/03/30 07:18:55;;;;;;;2.77;2.47;;;19.30;50.30;;;;;;5075128;28;20484;-60
2021/03/30 07:21:25;;;;;;;3.43;2.33;;;19.30;50.20;;;;;;5075932;28;20465;-60
2021/03/30 07:23:53;;;;;;;5.70;3.07;;;19.40;50.00;;;;;;5081029;28;20465;-60
2021/03/30 07:26:21;;;;;;;3.60;2.40;;;19.40;49.90;;;;;;5095343;28;20527;-60
2021/03/30 07:28:50;;;;;;;2.63;2.43;;;19.50;49.90;;;;;;5095918;28;20470;-60
2021/03/30 07:31:23;;;;;;;2.70;2.50;;;19.50;49.90;;;;;;5095719;28;20432;-60
2021/03/30 07:33:51;;;;;;;3.30;2.80;;;19.60;49.90;;;;;;5095207;28;20472;-60
2021/03/30 07:36:18;;;;;;;3.40;2.50;;;19.60;49.70;;;;;;5095285;28;20445;-60
2021/03/30 07:38:46;;;;;;;5.40;3.00;;;19.70;49.70;;;;;;5095724;28;20444;-60
2021/03/30 07:41:13;;;;;;;3.60;2.50;;;19.70;49.70;;;;;;5094678;28;20493;-61
2021/03/30 07:43:40;;;;;;;3.40;2.70;;;19.80;49.60;;;;;;5095587;28;20536;-60
2021/03/30 07:46:08;;;;;;;3.00;2.30;;;19.90;49.60;;;;;;5094969;28;20451;-60
2021/03/30 07:48:36;;;;;;;3.73;2.93;;;20.00;49.60;;;;;;5095563;28;20476;-60
2021/03/30 07:51:05;;;;;;;2.20;2.10;;;20.10;49.40;;;;;;5074385;28;20447;-61
2021/03/30 07:53:44;;;;;;;2.83;2.63;;;20.20;49.30;;;;;;5054883;28;20581;-60
2021/03/30 07:56:12;;;;;;;2.70;2.33;;;20.30;49.20;;;;;;5054532;28;20481;-60
2021/03/30 07:58:40;;;;;;;2.53;2.37;;;20.40;49.20;;;;;;5055009;28;20474;-60
2021/03/30 08:01:08;;;;;;;4.17;2.60;;;20.30;49.70;;;;;;5055278;28;20438;-60
2021/03/30 08:03:36;;;;;;;2.80;2.60;;;20.30;50.00;;;;;;5054317;28;20464;-61
2021/03/30 08:06:15;;;;;;;2.77;2.57;;;20.20;50.20;;;;;;5054218;28;20461;-61
2021/03/30 08:08:54;;;;;;;2.93;2.33;;;20.20;50.40;;;;;;5054951;28;20469;-61
2021/03/30 08:11:49;;;;;;;2.67;2.47;;;20.40;50.30;;;;;;5063576;28;20485;-61
2021/03/30 08:14:39;;;;;;;2.83;2.50;;;20.70;50.00;;;;;;5070807;28;20508;-61
2021/03/30 08:17:18;;;;;;;2.50;2.30;;;20.90;49.80;;;;;;5071050;28;20438;-61
2021/03/30 08:20:04;;;;;;;2.80;2.60;;;21.10;49.50;;;;;;5073809;28;20445;-61
2021/03/30 08:22:41;;;;;;;2.80;2.50;;;21.40;49.30;;;;;;5072807;28;20401;-61
2021/03/30 08:25:23;;;;;;;2.70;2.50;;;21.60;49.00;;;;;;5072457;28;20529;-61
2021/03/30 08:27:50;;;;;;;3.00;2.43;;;21.90;48.70;;;;;;5070760;28;20513;-61
2021/03/30 08:30:51;;;;;;;2.47;2.27;;;22.10;48.60;;;;;;5073159;28;20546;-61
2021/03/30 08:33:19;;;;;;;3.10;1.93;;;22.40;48.20;;;;;;5071118;28;20511;-61
2021/03/30 08:35:46;;;;;;;2.77;2.50;;;22.70;48.00;;;;;;5087876;28;20451;-61
2021/03/30 08:38:30;;;;;;;3.33;3.10;;;22.90;47.80;;;;;;5095127;28;20456;-61
2021/03/30 08:40:58;;;;;;;2.63;2.43;;;23.10;47.50;;;;;;5094177;28;20476;-61
2021/03/30 08:43:24;;;;;;;2.73;2.53;;;23.40;47.10;;;;;;5093868;28;20464;-61
2021/03/30 08:46:06;;;;;;;3.33;3.03;;;23.60;47.00;;;;;;5079803;28;20499;-61
2021/03/30 08:48:36;;;;;;;2.67;2.57;;;23.90;47.30;;;;;;5068100;28;20428;-60
2021/03/30 08:51:05;;;;;;;4.13;2.70;;;24.00;46.50;;;;;;5064819;28;20425;-60
2021/03/30 08:53:32;;;;;;;2.53;2.43;;;24.30;46.40;;;;;;5069266;28;20474;-61
2021/03/30 08:56:00;;;;;;;3.87;2.53;;;24.40;46.20;;;;;;5061555;28;20406;-60
2021/03/30 08:58:28;;;;;;;2.80;2.50;;;24.70;45.90;;;;;;5064749;28;20521;-61
2021/03/30 09:00:55;;;;;;;2.70;2.50;;;24.90;45.60;;;;;;5062946;28;20467;-60
2021/03/30 09:03:26;;;;;;;2.77;2.50;;;25.20;45.50;;;;;;5072731;28;20525;-61
2021/03/30 09:05:54;;;;;;;4.20;2.97;;;25.30;45.40;;;;;;5073122;28;20439;-61
2021/03/30 09:08:37;;;;;;;2.77;2.57;;;25.50;45.20;;;;;;5073156;28;20404;-61
2021/03/30 09:11:18;;;;;;;3.30;2.70;;;25.70;44.90;;;;;;5074132;28;20412;-61
2021/03/30 09:14:02;;;;;;;2.97;2.77;;;26.10;44.40;;;;;;5074113;28;20550;-61
2021/03/30 09:16:29;;;;;;;2.63;2.50;;;26.50;43.80;;;;;;5074184;28;20392;-61
2021/03/30 09:19:17;;;;;;;6.10;3.27;;;26.90;43.50;;;;;;5078799;28;20519;-62
2021/03/30 09:21:46;;;;;;;5.27;2.67;;;27.10;43.10;;;;;;5094339;28;20421;-62
2021/03/30 09:24:26;;;;;;;3.40;3.10;;;27.40;42.80;;;;;;5073734;28;20468;-62
2021/03/30 09:26:53;;;;;;;4.00;3.10;;;27.70;42.60;;;;;;5073736;28;20491;-62
2021/03/30 09:29:20;;;;;;;2.77;2.57;;;27.90;42.40;;;;;;5091107;28;20415;-62
2021/03/30 09:31:47;;;;;;;4.50;3.10;;;28.20;42.20;;;;;;5072410;28;20445;-61
2021/03/30 09:34:14;;;;;;;3.97;2.80;;;28.30;42.00;;;;;;5070852;28;20480;-61
2021/03/30 09:36:47;;;;;;;2.60;2.40;;;28.60;41.80;;;;;;5074471;28;20446;-61
2021/03/30 09:39:18;;;;;;;2.70;2.50;;;28.90;42.10;;;;;;5072437;28;20469;-61
2021/03/30 09:41:45;;;;;;;3.00;2.87;;;29.10;41.30;;;;;;5071246;28;20509;-61
2021/03/30 09:44:12;;;;;;;6.10;2.93;;;29.40;41.10;;;;;;5076542;28;20501;-61
2021/03/30 09:46:42;;;;;;;6.57;2.70;;;29.70;40.80;;;;;;5072000;28;20497;-61
2021/03/30 09:49:10;;;;;;;3.00;2.70;;;29.90;40.60;;;;;;5076467;28;20438;-61
2021/03/30 09:51:38;;;;;;;3.00;2.60;;;30.10;40.40;;;;;;5076713;28;20442;-61
2021/03/30 09:54:33;;;;;;;4.67;2.80;;;30.30;40.20;;;;;;5076077;28;20456;-62
2021/03/30 09:57:01;;;;;;;3.63;2.77;;;30.50;40.80;;;;;;5050065;28;20438;-61
2021/03/30 09:59:28;;;;;;;2.60;2.50;;;30.70;39.80;;;;;;5076524;28;20458;-61
2021/03/30 10:01:55;;;;;;;4.73;3.10;;;30.90;39.70;;;;;;5076185;28;20479;-61
2021/03/30 10:04:24;;;;;;;3.67;2.83;;;31.10;39.70;;;;;;5075518;28;20430;-61
2021/03/30 10:06:52;;;;;;;3.13;2.90;;;31.30;39.40;;;;;;5076806;28;20517;-61
2021/03/30 10:09:19;;;;;;;3.73;2.70;;;31.50;39.10;;;;;;5076305;28;20426;-61
2021/03/30 10:11:51;;;;;;;2.70;2.60;;;31.70;38.90;;;;;;5077565;28;20461;-61
2021/03/30 10:14:34;;;;;;;5.43;2.60;;;31.80;38.80;;;;;;5075287;28;20469;-61
2021/03/30 10:17:01;;;;;;;2.70;2.60;;;32.00;38.70;;;;;;5076300;28;20512;-61
2021/03/30 10:19:28;;;;;;;2.93;2.73;;;32.30;38.40;;;;;;5065280;28;20445;-61
2021/03/30 10:21:55;;;;;;;3.07;2.90;;;32.50;38.20;;;;;;5073904;28;20472;-61
2021/03/30 10:24:23;;;;;;;3.20;2.90;;;32.80;37.90;;;;;;5076435;28;20429;-61
2021/03/30 10:27:09;;;;;;;4.37;3.10;;;32.90;37.90;;;;;;5077383;28;20545;-61
2021/03/30 10:29:39;;;;;;;2.87;2.67;;;33.20;37.60;;;;;;5073282;28;20538;-61
2021/03/30 10:32:09;;;;;;;3.03;2.80;;;33.30;37.40;;;;;;5057237;28;20504;-61
2021/03/30 10:34:36;;;;;;;3.83;3.10;;;33.60;37.20;;;;;;5066279;28;20524;-61
2021/03/30 10:37:04;;;;;;;2.77;2.60;;;33.70;36.90;;;;;;5076778;28;20495;-61
2021/03/30 10:39:31;;;;;;;3.00;2.80;;;33.90;36.90;;;;;;5063953;28;20431;-61
2021/03/30 10:42:03;;;;;;;2.50;2.30;;;34.00;36.80;;;;;;5056873;28;20431;-63
2021/03/30 10:44:35;;;;;;;2.90;2.70;;;34.20;36.60;;;;;;5056403;28;20470;-63
2021/03/30 10:47:13;;;;;;;3.10;2.90;;;34.40;36.40;;;;;;5057412;28;20441;-63
2021/03/30 10:49:40;;;;;;;2.80;2.53;;;34.60;36.20;;;;;;5057273;28;20469;-62
2021/03/30 10:52:11;;;;;;;3.07;2.87;;;34.90;35.90;;;;;;5056393;28;20472;-62
2021/03/30 10:54:38;;;;;;;2.60;2.50;;;35.10;35.60;;;;;;5055963;28;20537;-59
2021/03/30 10:57:08;;;;;;;2.90;2.63;;;35.50;35.40;;;;;;5066068;28;20519;-59
2021/03/30 10:59:36;;;;;;;2.70;2.60;;;35.70;35.10;;;;;;5076899;28;20507;-59
2021/03/30 11:02:03;;;;;;;2.90;2.70;;;35.90;34.80;;;;;;5076588;28;20562;-58
2021/03/30 11:04:30;;;;;;;3.80;2.77;;;36.10;34.50;;;;;;5070956;28;20505;-71
2021/03/30 11:06:58;;;;;;;6.10;3.00;;;36.20;30.70;;;;;;5056486;28;20481;-61
2021/03/30 11:09:26;;;;;;;4.20;2.60;;;34.20;32.20;;;;;;5055986;28;20492;-61
2021/03/30 11:11:53;;;;;;;5.43;3.00;;;34.70;31.20;;;;;;5064225;28;20434;-61
2021/03/30 11:14:21;;;;;;;8.83;2.07;;;34.90;31.00;;;;;;5083838;28;20491;-61
2021/03/30 11:16:49;;;;;;;9.80;2.53;;;35.10;30.70;;;;;;5096588;28;20445;-61
2021/03/30 11:19:16;;;;;;;10.93;3.00;;;35.10;30.50;;;;;;5096273;28;20476;-61
2021/03/30 11:21:43;;;;;;;4.33;1.90;;;35.10;30.70;;;;;;5096459;28;20472;-61
2021/03/30 11:24:13;;;;;;;4.73;2.27;;;35.00;30.50;;;;;;5062814;28;20532;-61
2021/03/30 11:26:44;;;;;;;6.53;2.00;;;35.00;30.40;;;;;;5056133;28;20519;-61
2021/03/30 11:29:15;;;;;;;7.33;2.20;;;35.00;30.50;;;;;;5055876;28;20469;-61
2021/03/30 11:31:58;;;;;;;7.93;2.73;;;35.10;30.30;;;;;;5068220;28;20448;-61
2021/03/30 11:34:27;;;;;;;10.60;2.57;;;35.10;30.00;;;;;;5095352;28;20511;-61
2021/03/30 11:37:00;;;;;;;2.40;2.20;;;35.20;29.80;;;;;;5096006;28;20484;-60
2021/03/30 11:39:27;;;;;;;3.73;2.30;;;35.20;29.80;;;;;;5096002;28;20527;-61
2021/03/30 11:41:56;;;;;;;4.40;2.30;;;35.20;29.70;;;;;;5095589;28;20428;-60
2021/03/30 11:44:23;;;;;;;6.63;2.13;;;35.30;29.60;;;;;;5095575;28;20461;-61
2021/03/30 11:46:50;;;;;;;2.23;1.90;;;35.20;29.50;;;;;;5095906;28;20549;-61
2021/03/30 11:49:16;;;;;;;2.10;2.00;;;35.10;29.60;;;;;;5095647;28;20536;-60
2021/03/30 11:51:44;;;;;;;3.03;2.10;;;35.20;29.50;;;;;;5096131;28;20468;-60
2021/03/30 11:54:11;;;;;;;2.80;1.90;;;35.20;29.40;;;;;;5095237;28;20468;-60
2021/03/30 11:56:38;;;;;;;3.40;2.10;;;35.20;29.40;;;;;;5090279;28;20512;-60
2021/03/30 11:59:05;;;;;;;1.87;1.77;;;35.30;29.40;;;;;;5063272;28;20485;-60
2021/03/30 12:01:32;;;;;;;4.00;2.27;;;35.10;29.30;;;;;;5055325;28;20509;-60
2021/03/30 12:03:58;;;;;;;3.63;2.20;;;35.10;29.50;;;;;;5049593;28;20533;-60
2021/03/30 12:06:25;;;;;;;2.93;2.60;;;35.00;29.50;;;;;;5054846;28;20439;-60
2021/03/30 12:08:53;;;;;;;2.40;2.20;;;35.00;29.70;;;;;;5075018;28;20481;-60
2021/03/30 12:11:20;;;;;;;3.77;2.57;;;34.90;29.60;;;;;;5074862;28;20473;-60
2021/03/30 12:13:46;;;;;;;4.63;2.90;;;34.90;29.60;;;;;;5074933;28;20564;-60
2021/03/30 12:16:17;;;;;;;3.87;2.30;;;35.00;29.50;;;;;;5082332;28;20486;-60
2021/03/30 12:18:43;;;;;;;5.57;2.60;;;35.10;29.40;;;;;;5095537;28;20471;-60
2021/03/30 12:21:10;;;;;;;2.30;2.03;;;35.10;29.40;;;;;;5094864;28;20432;-60
2021/03/30 12:23:37;;;;;;;2.27;2.07;;;35.10;29.40;;;;;;5095025;28;20481;-60
2021/03/30 12:26:05;;;;;;;7.97;2.37;;;34.90;29.50;;;;;;5078198;28;20468;-60
2021/03/30 12:28:32;;;;;;;2.43;2.23;;;34.80;29.70;;;;;;5074362;28;20492;-60
2021/03/30 12:30:59;;;;;;;6.87;2.60;;;34.80;29.80;;;;;;5074747;28;20525;-60
2021/03/30 12:33:25;;;;;;;3.43;2.33;;;34.70;30.00;;;;;;5071625;28;20517;-60
2021/03/30 12:35:53;;;;;;;5.80;2.50;;;34.80;29.60;;;;;;5054236;28;20459;-60
2021/03/30 12:38:20;;;;;;;2.93;2.60;;;34.80;29.80;;;;;;5054605;28;20534;-60
2021/03/30 12:40:47;;;;;;;5.80;2.47;;;34.90;29.50;;;;;;5054969;28;20449;-60
2021/03/30 12:43:14;;;;;;;5.20;2.20;;;34.90;29.40;;;;;;5065296;28;20518;-61
2021/03/30 12:45:41;;;;;;;2.80;2.43;;;34.70;29.60;;;;;;5074187;28;20476;-60
2021/03/30 12:48:10;;;;;;;4.43;2.97;;;34.80;29.60;;;;;;5074075;28;20455;-60
2021/03/30 12:50:36;;;;;;;2.70;2.20;;;34.70;29.70;;;;;;5074200;28;20495;-60
2021/03/30 12:53:03;;;;;;;2.20;2.10;;;34.60;29.70;;;;;;5055262;28;20473;-60
2021/03/30 12:55:30;;;;;;;4.20;2.43;;;34.50;29.80;;;;;;5053890;28;20507;-60
2021/03/30 12:57:57;;;;;;;2.50;2.30;;;34.50;29.90;;;;;;5070303;28;20471;-60
2021/03/30 13:00:25;;;;;;;5.03;1.87;;;34.50;30.50;;;;;;5067594;28;20510;-60